createdAt,value
2018-04-06T00:00:21.081Z,0.99
2018-04-06T00:01:26.331Z,0.96
2018-04-06T00:02:31.261Z,0.96
2018-04-06T00:03:36.368Z,0.93
2018-04-06T00:04:41.064Z,0.94
2018-04-06T00:05:45.941Z,0.93
2018-04-06T00:06:50.614Z,0.90
2018-04-06T00:07:56.221Z,0.86
2018-04-06T00:09:01.123Z,0.87
2018-04-06T00:10:06.092Z,0.93
2018-04-06T00:11:10.807Z,0.91
2018-04-06T00:12:16.272Z,0.86
2018-04-06T00:13:21.615Z,0.89
2018-04-06T00:14:26.778Z,0.87
2018-04-06T00:15:32.157Z,0.85
2018-04-06T00:16:37.455Z,0.86
2018-04-06T00:17:42.561Z,0.85
2018-04-06T00:18:48.251Z,0.84
2018-04-06T00:19:53.811Z,0.84
2018-04-06T00:20:58.686Z,0.86
2018-04-06T00:22:03.494Z,0.85
2018-04-06T00:23:08.356Z,0.85
2018-04-06T00:24:13.935Z,0.82
2018-04-06T00:25:19.413Z,0.80
2018-04-06T00:26:24.479Z,0.77
2018-04-06T00:27:29.385Z,0.79
2018-04-06T00:28:35.319Z,0.83
2018-04-06T00:29:39.735Z,0.86
2018-04-06T00:30:44.412Z,0.86
2018-04-06T00:31:49.181Z,0.83
2018-04-06T00:32:53.868Z,0.78
2018-04-06T00:33:59.905Z,0.76
2018-04-06T00:35:05.081Z,0.74
2018-04-06T00:36:10.408Z,0.72
2018-04-06T00:37:15.218Z,0.69
2018-04-06T00:38:20.304Z,0.66
2018-04-06T00:39:25.472Z,0.67
2018-04-06T00:40:30.211Z,0.67
2018-04-06T00:41:35.465Z,0.66
2018-04-06T00:42:40.000Z,0.68
2018-04-06T00:43:44.564Z,0.72
2018-04-06T00:44:49.654Z,0.71
2018-04-06T00:45:54.591Z,0.70
2018-04-06T00:46:59.114Z,0.70
2018-04-06T00:48:03.698Z,0.71
2018-04-06T00:49:08.285Z,0.72
2018-04-06T00:50:12.758Z,0.73
2018-04-06T00:51:17.242Z,0.73
2018-04-06T00:52:21.932Z,0.72
2018-04-06T00:53:35.099Z,0.70
2018-04-06T00:54:39.709Z,0.68
2018-04-06T00:55:44.140Z,0.68
2018-04-06T00:56:48.611Z,0.64
2018-04-06T00:57:53.499Z,0.69
2018-04-06T00:58:59.115Z,0.76
2018-04-06T01:00:06.416Z,0.75
2018-04-06T01:01:10.957Z,0.72
2018-04-06T01:02:15.254Z,0.76
2018-04-06T01:03:19.995Z,0.82
2018-04-06T01:04:24.568Z,0.77
2018-04-06T01:05:30.236Z,0.74
2018-04-06T01:06:35.630Z,0.72
2018-04-06T01:07:40.708Z,0.71
2018-04-06T01:08:46.363Z,0.71
2018-04-06T01:09:51.146Z,0.73
2018-04-06T01:10:56.741Z,0.89
2018-04-06T01:12:01.522Z,0.95
2018-04-06T01:13:05.984Z,0.92
2018-04-06T01:14:10.322Z,0.92
2018-04-06T01:15:16.397Z,0.97
2018-04-06T01:16:21.238Z,1.37
2018-04-06T01:17:25.741Z,1.40
2018-04-06T01:18:30.642Z,1.26
2018-04-06T01:19:35.768Z,1.29
2018-04-06T01:20:40.545Z,1.40
2018-04-06T01:21:46.128Z,1.23
2018-04-06T01:22:51.394Z,1.08
2018-04-06T01:23:56.431Z,0.98
2018-04-06T01:25:01.736Z,0.87
2018-04-06T01:26:06.152Z,0.77
2018-04-06T01:27:10.638Z,0.76
2018-04-06T01:28:15.055Z,0.70
2018-04-06T01:29:19.915Z,0.64
2018-04-06T01:30:24.975Z,0.61
2018-04-06T01:31:29.509Z,0.59
2018-04-06T01:32:34.028Z,0.57
2018-04-06T01:33:38.414Z,0.59
2018-04-06T01:34:42.777Z,0.62
2018-04-06T01:35:48.708Z,0.62
2018-04-06T01:36:53.029Z,0.63
2018-04-06T01:37:57.576Z,0.71
2018-04-06T01:39:02.435Z,0.80
2018-04-06T01:40:06.819Z,0.92
2018-04-06T01:41:11.197Z,0.97
2018-04-06T01:42:15.876Z,1.05
2018-04-06T01:43:20.101Z,1.19
2018-04-06T01:44:24.419Z,1.19
2018-04-06T01:45:29.040Z,1.14
2018-04-06T01:46:33.401Z,1.10
2018-04-06T01:47:38.029Z,1.15
2018-04-06T01:48:42.359Z,1.17
2018-04-06T01:49:46.931Z,1.15
2018-04-06T01:50:51.307Z,1.14
2018-04-06T01:51:55.760Z,1.17
2018-04-06T01:53:01.076Z,1.17
2018-04-06T01:54:05.362Z,1.14
2018-04-06T01:55:10.178Z,1.03
2018-04-06T01:56:14.475Z,0.91
2018-04-06T01:57:19.008Z,0.81
2018-04-06T01:58:23.461Z,0.72
2018-04-06T01:59:28.253Z,0.66
2018-04-06T02:00:32.926Z,0.64
2018-04-06T02:01:37.946Z,0.60
2018-04-06T02:02:42.279Z,0.58
2018-04-06T02:03:47.564Z,0.51
2018-04-06T02:04:52.205Z,0.46
2018-04-06T02:05:57.162Z,0.51
2018-04-06T02:07:02.024Z,0.49
2018-04-06T02:08:07.077Z,0.41
2018-04-06T02:09:11.729Z,0.37
2018-04-06T02:10:16.176Z,0.36
2018-04-06T02:11:20.427Z,0.34
2018-04-06T02:12:24.624Z,0.32
2018-04-06T02:13:29.120Z,0.28
2018-04-06T02:14:33.484Z,0.26
2018-04-06T02:15:37.977Z,0.27
2018-04-06T02:16:42.538Z,0.29
2018-04-06T02:17:47.261Z,0.25
2018-04-06T02:18:51.748Z,0.27
2018-04-06T02:19:56.326Z,0.24
2018-04-06T02:21:00.587Z,0.23
2018-04-06T02:22:04.860Z,0.18
2018-04-06T02:23:09.399Z,0.15
2018-04-06T02:24:14.146Z,0.10
2018-04-06T02:25:18.418Z,0.11
2018-04-06T02:26:23.098Z,0.16
2018-04-06T02:27:27.309Z,0.17
2018-04-06T02:28:31.537Z,0.14
2018-04-06T02:29:36.119Z,0.13
2018-04-06T02:30:40.327Z,0.13
2018-04-06T02:31:44.597Z,0.13
2018-04-06T02:32:49.272Z,0.13
2018-04-06T02:33:53.593Z,0.13
2018-04-06T02:34:58.871Z,0.08
2018-04-06T02:36:03.225Z,0.07
2018-04-06T02:37:07.491Z,0.08
2018-04-06T02:38:11.789Z,0.05
2018-04-06T02:39:15.952Z,0.13
2018-04-06T02:40:20.184Z,0.19
2018-04-06T02:41:24.388Z,0.25
2018-04-06T02:42:28.612Z,0.30
2018-04-06T02:43:33.027Z,0.30
2018-04-06T02:44:37.585Z,0.29
2018-04-06T02:45:42.637Z,0.28
2018-04-06T02:46:46.895Z,0.22
2018-04-06T02:47:51.942Z,0.17
2018-04-06T02:48:56.238Z,0.15
2018-04-06T02:50:01.065Z,0.14
2018-04-06T02:51:05.513Z,0.09
2018-04-06T02:52:10.468Z,0.08
2018-04-06T02:53:14.827Z,0.03
2018-04-06T02:54:19.192Z,0.07
2018-04-06T02:55:23.468Z,0.03
2018-04-06T02:56:27.825Z,0.01
2018-04-06T02:57:32.087Z,-0.02
2018-04-06T02:58:36.749Z,-0.03
2018-04-06T02:59:40.951Z,-0.06
2018-04-06T03:00:45.424Z,-0.08
2018-04-06T03:01:50.248Z,-0.08
2018-04-06T03:02:54.459Z,-0.07
2018-04-06T03:03:58.942Z,-0.01
2018-04-06T03:05:03.421Z,0.00
2018-04-06T03:06:07.676Z,-0.01
2018-04-06T03:07:11.907Z,0.00
2018-04-06T03:08:16.169Z,-0.02
2018-04-06T03:09:20.406Z,-0.05
2018-04-06T03:10:25.216Z,-0.03
2018-04-06T03:11:29.384Z,-0.01
2018-04-06T03:12:33.547Z,-0.02
2018-04-06T03:13:38.001Z,0.01
2018-04-06T03:14:42.245Z,-0.04
2018-04-06T03:15:46.720Z,-0.02
2018-04-06T03:16:51.479Z,-0.04
2018-04-06T03:17:55.667Z,-0.06
2018-04-06T03:19:00.698Z,-0.05
2018-04-06T03:20:04.953Z,-0.03
2018-04-06T03:21:09.124Z,-0.02
2018-04-06T03:22:13.422Z,-0.04
2018-04-06T03:23:17.943Z,-0.04
2018-04-06T03:24:22.188Z,-0.06
2018-04-06T03:25:26.347Z,-0.04
2018-04-06T03:26:30.503Z,-0.03
2018-04-06T03:27:34.815Z,-0.03
2018-04-06T03:28:39.011Z,-0.07
2018-04-06T03:29:43.393Z,-0.10
2018-04-06T03:30:47.904Z,-0.10
2018-04-06T03:31:53.111Z,-0.08
2018-04-06T03:32:57.277Z,-0.08
2018-04-06T03:34:01.650Z,-0.12
2018-04-06T03:35:06.236Z,-0.11
2018-04-06T03:36:10.760Z,-0.12
2018-04-06T03:37:15.063Z,-0.13
2018-04-06T03:38:19.255Z,-0.15
2018-04-06T03:39:23.966Z,-0.16
2018-04-06T03:40:28.517Z,-0.16
2018-04-06T03:41:32.947Z,-0.17
2018-04-06T03:42:37.754Z,-0.18
2018-04-06T03:43:42.382Z,-0.20
2018-04-06T03:44:46.914Z,-0.20
2018-04-06T03:45:52.075Z,-0.22
2018-04-06T03:46:56.336Z,-0.24
2018-04-06T03:48:00.542Z,-0.26
2018-04-06T03:49:05.081Z,-0.28
2018-04-06T03:50:09.232Z,-0.24
2018-04-06T03:51:13.429Z,-0.23
2018-04-06T03:52:17.607Z,-0.20
2018-04-06T03:53:21.799Z,-0.20
2018-04-06T03:54:26.409Z,-0.23
2018-04-06T03:55:30.554Z,-0.24
2018-04-06T03:56:34.704Z,-0.26
2018-04-06T03:57:38.988Z,-0.28
2018-04-06T03:58:43.355Z,-0.28
2018-04-06T03:59:47.566Z,-0.27
2018-04-06T04:00:53.587Z,-0.27
2018-04-06T04:01:57.772Z,-0.26
2018-04-06T04:03:02.055Z,-0.28
2018-04-06T04:04:06.245Z,-0.28
2018-04-06T04:05:10.530Z,-0.30
2018-04-06T04:06:14.707Z,-0.31
2018-04-06T04:07:19.240Z,-0.30
2018-04-06T04:08:23.714Z,-0.27
2018-04-06T04:09:28.347Z,-0.27
2018-04-06T04:10:32.502Z,-0.26
2018-04-06T04:11:36.895Z,-0.26
2018-04-06T04:12:41.190Z,-0.28
2018-04-06T04:13:45.761Z,-0.29
2018-04-06T04:14:49.991Z,-0.28
2018-04-06T04:15:55.366Z,-0.28
2018-04-06T04:16:59.554Z,-0.22
2018-04-06T04:18:04.208Z,-0.22
2018-04-06T04:19:08.830Z,-0.24
2018-04-06T04:20:13.027Z,-0.25
2018-04-06T04:21:17.199Z,-0.26
2018-04-06T04:22:21.475Z,-0.23
2018-04-06T04:23:25.705Z,-0.13
2018-04-06T04:24:30.004Z,-0.10
2018-04-06T04:25:34.255Z,-0.09
2018-04-06T04:26:38.770Z,-0.14
2018-04-06T04:27:43.136Z,-0.10
2018-04-06T04:28:47.432Z,-0.12
2018-04-06T04:29:51.734Z,-0.19
2018-04-06T04:30:57.253Z,-0.22
2018-04-06T04:32:02.347Z,-0.24
2018-04-06T04:33:06.839Z,-0.15
2018-04-06T04:34:11.169Z,-0.14
2018-04-06T04:35:15.469Z,-0.15
2018-04-06T04:36:19.827Z,-0.07
2018-04-06T04:37:24.079Z,-0.01
2018-04-06T04:38:28.356Z,0.18
2018-04-06T04:39:32.883Z,0.34
2018-04-06T04:40:37.198Z,0.36
2018-04-06T04:41:41.615Z,0.41
2018-04-06T04:42:45.923Z,0.41
2018-04-06T04:43:50.248Z,0.42
2018-04-06T04:44:55.717Z,0.47
2018-04-06T04:46:00.361Z,0.47
2018-04-06T04:47:05.383Z,0.56
2018-04-06T04:48:09.610Z,0.72
2018-04-06T04:49:13.868Z,0.92
2018-04-06T04:50:18.274Z,1.00
2018-04-06T04:51:22.790Z,1.05
2018-04-06T04:52:27.036Z,1.14
2018-04-06T04:53:31.506Z,1.14
2018-04-06T04:54:35.820Z,1.14
2018-04-06T04:55:40.242Z,1.12
2018-04-06T04:56:44.722Z,1.11
2018-04-06T04:57:49.446Z,1.05
2018-04-06T04:58:53.835Z,1.02
2018-04-06T04:59:58.938Z,0.93
2018-04-06T05:01:03.940Z,0.87
2018-04-06T05:02:08.586Z,0.88
2018-04-06T05:03:12.881Z,0.91
2018-04-06T05:04:17.431Z,0.97
2018-04-06T05:05:21.782Z,1.05
2018-04-06T05:06:26.173Z,1.11
2018-04-06T05:07:30.539Z,1.18
2018-04-06T05:08:35.023Z,1.14
2018-04-06T05:09:39.419Z,1.17
2018-04-06T05:10:43.937Z,1.23
2018-04-06T05:11:48.234Z,1.24
2018-04-06T05:12:52.566Z,1.31
2018-04-06T05:13:57.667Z,1.39
2018-04-06T05:15:04.234Z,1.45
2018-04-06T05:16:09.285Z,1.37
2018-04-06T05:17:13.989Z,1.22
2018-04-06T05:18:18.370Z,1.12
2018-04-06T05:19:23.018Z,1.21
2018-04-06T05:20:27.481Z,1.36
2018-04-06T05:21:32.018Z,1.54
2018-04-06T05:22:36.644Z,1.69
2018-04-06T05:23:41.389Z,1.86
2018-04-06T05:24:46.024Z,1.98
2018-04-06T05:25:50.564Z,2.07
2018-04-06T05:26:55.653Z,2.14
2018-04-06T05:28:00.242Z,2.24
2018-04-06T05:29:05.689Z,2.41
2018-04-06T05:30:10.046Z,2.58
2018-04-06T05:31:14.798Z,2.76
2018-04-06T05:32:19.798Z,3.01
2018-04-06T05:33:24.349Z,3.15
2018-04-06T05:34:28.890Z,3.48
2018-04-06T05:35:33.271Z,3.54
2018-04-06T05:36:37.618Z,3.59
2018-04-06T05:37:42.311Z,3.75
2018-04-06T05:38:46.949Z,3.85
2018-04-06T05:39:51.353Z,3.92
2018-04-06T05:40:55.894Z,3.97
2018-04-06T05:42:00.769Z,4.03
2018-04-06T05:43:05.354Z,4.08
2018-04-06T05:44:10.111Z,4.13
2018-04-06T05:45:23.039Z,4.28
2018-04-06T05:46:27.783Z,4.38
2018-04-06T05:47:32.601Z,4.59
2018-04-06T05:48:37.576Z,4.83
2018-04-06T05:49:42.383Z,4.99
2018-04-06T05:50:47.049Z,5.24
2018-04-06T05:51:51.906Z,5.39
2018-04-06T05:52:57.082Z,5.51
2018-04-06T05:54:01.468Z,5.65
2018-04-06T05:55:07.410Z,5.72
2018-04-06T05:56:12.295Z,5.54
2018-04-06T05:57:17.340Z,5.42
2018-04-06T05:58:21.894Z,5.54
2018-04-06T05:59:26.866Z,5.41
2018-04-06T06:00:32.399Z,5.46
2018-04-06T06:01:37.532Z,4.70
2018-04-06T06:02:42.258Z,4.07
2018-04-06T06:03:47.151Z,4.05
2018-04-06T06:04:51.917Z,3.99
2018-04-06T06:05:57.355Z,3.97
2018-04-06T06:07:02.528Z,4.03
2018-04-06T06:08:07.701Z,4.31
2018-04-06T06:09:12.506Z,4.42
2018-04-06T06:10:17.517Z,4.40
2018-04-06T06:11:22.307Z,4.36
2018-04-06T06:12:26.969Z,4.83
2018-04-06T06:13:31.890Z,5.00
2018-04-06T06:14:36.717Z,5.19
2018-04-06T06:15:42.101Z,5.30
2018-04-06T06:16:46.638Z,5.77
2018-04-06T06:17:51.420Z,5.85
2018-04-06T06:18:56.392Z,5.87
2018-04-06T06:20:01.684Z,5.98
2018-04-06T06:21:07.674Z,5.99
2018-04-06T06:22:12.413Z,6.27
2018-04-06T06:23:17.283Z,6.77
2018-04-06T06:24:22.045Z,7.39
2018-04-06T06:25:27.188Z,7.85
2018-04-06T06:26:32.336Z,8.32
2018-04-06T06:27:37.373Z,8.54
2018-04-06T06:28:42.462Z,8.16
2018-04-06T06:29:47.562Z,7.48
2018-04-06T06:30:54.002Z,6.95
2018-04-06T06:31:59.897Z,6.96
2018-04-06T06:33:04.968Z,6.33
2018-04-06T06:34:09.793Z,6.49
2018-04-06T06:35:14.652Z,6.99
2018-04-06T06:36:19.732Z,7.79
2018-04-06T06:37:24.657Z,7.18
2018-04-06T06:38:29.394Z,6.69
2018-04-06T06:39:34.850Z,6.65
2018-04-06T06:40:39.780Z,6.52
2018-04-06T06:41:44.893Z,6.52
2018-04-06T06:42:49.642Z,6.36
2018-04-06T06:43:54.723Z,6.18
2018-04-06T06:44:59.778Z,6.43
2018-04-06T06:46:06.327Z,6.91
2018-04-06T06:47:11.486Z,7.54
2018-04-06T06:48:16.631Z,8.35
2018-04-06T06:49:21.956Z,8.92
2018-04-06T06:50:27.030Z,9.26
2018-04-06T06:51:32.086Z,9.11
2018-04-06T06:52:37.177Z,9.08
2018-04-06T06:53:42.311Z,9.11
2018-04-06T06:54:47.451Z,9.07
2018-04-06T06:55:52.579Z,9.17
2018-04-06T06:56:58.326Z,9.21
2018-04-06T06:58:03.520Z,9.52
2018-04-06T06:59:09.602Z,9.43
2018-04-06T07:00:17.967Z,9.34
2018-04-06T07:01:23.073Z,9.57
2018-04-06T07:02:28.218Z,9.46
2018-04-06T07:03:33.423Z,9.52
2018-04-06T07:04:38.471Z,9.64
2018-04-06T07:05:43.885Z,10.43
2018-04-06T07:06:48.913Z,10.98
2018-04-06T07:07:54.163Z,10.95
2018-04-06T07:08:59.566Z,10.46
2018-04-06T07:10:04.647Z,10.04
2018-04-06T07:11:09.856Z,9.54
2018-04-06T07:12:15.161Z,9.52
2018-04-06T07:13:20.379Z,8.99
2018-04-06T07:14:25.282Z,9.01
2018-04-06T07:15:31.276Z,9.66
2018-04-06T07:16:36.368Z,10.38
2018-04-06T07:17:41.293Z,10.81
2018-04-06T07:18:46.641Z,10.89
2018-04-06T07:19:51.755Z,11.18
2018-04-06T07:20:57.740Z,10.98
2018-04-06T07:22:02.964Z,11.16
2018-04-06T07:23:08.971Z,11.26
2018-04-06T07:24:14.191Z,11.14
2018-04-06T07:25:19.466Z,11.26
2018-04-06T07:26:24.426Z,11.41
2018-04-06T07:27:29.500Z,11.08
2018-04-06T07:28:34.674Z,10.20
2018-04-06T07:29:39.989Z,10.52
2018-04-06T07:30:45.650Z,10.11
2018-04-06T07:31:50.665Z,9.72
2018-04-06T07:32:56.408Z,9.84
2018-04-06T07:34:02.372Z,10.18
2018-04-06T07:35:08.540Z,10.41
2018-04-06T07:36:13.859Z,10.04
2018-04-06T07:37:19.088Z,10.39
2018-04-06T07:38:24.269Z,11.03
2018-04-06T07:39:29.350Z,11.26
2018-04-06T07:40:34.519Z,11.29
2018-04-06T07:41:39.430Z,11.10
2018-04-06T07:42:45.026Z,10.73
2018-04-06T07:43:50.288Z,10.27
2018-04-06T07:44:55.521Z,10.36
2018-04-06T07:46:01.028Z,10.32
2018-04-06T07:47:07.119Z,9.59
2018-04-06T07:48:12.126Z,9.22
2018-04-06T07:49:17.552Z,8.89
2018-04-06T07:50:22.633Z,8.86
2018-04-06T07:51:27.827Z,9.42
2018-04-06T07:52:33.111Z,9.50
2018-04-06T07:53:38.159Z,9.49
2018-04-06T07:54:43.387Z,9.64
2018-04-06T07:55:48.831Z,10.24
2018-04-06T07:56:54.125Z,10.82
2018-04-06T07:57:59.216Z,11.46
2018-04-06T07:59:05.319Z,11.93
2018-04-06T08:00:13.344Z,12.29
2018-04-06T08:01:18.419Z,11.97
2018-04-06T08:02:23.524Z,11.78
2018-04-06T08:03:28.611Z,11.28
2018-04-06T08:04:33.619Z,10.93
2018-04-06T08:05:38.584Z,11.26
2018-04-06T08:06:43.468Z,11.59
2018-04-06T08:07:48.444Z,11.06
2018-04-06T08:08:53.817Z,10.77
2018-04-06T08:09:59.020Z,10.80
2018-04-06T08:11:04.367Z,10.93
2018-04-06T08:12:10.661Z,11.44
2018-04-06T08:13:16.465Z,11.85
2018-04-06T08:14:21.978Z,12.23
2018-04-06T08:15:27.302Z,12.23
2018-04-06T08:16:32.472Z,11.79
2018-04-06T08:17:37.634Z,11.79
2018-04-06T08:18:42.711Z,12.02
2018-04-06T08:19:48.160Z,12.28
2018-04-06T08:20:53.776Z,12.10
2018-04-06T08:21:58.858Z,11.53
2018-04-06T08:23:04.497Z,11.20
2018-04-06T08:24:09.666Z,11.80
2018-04-06T08:25:14.895Z,12.15
2018-04-06T08:26:20.058Z,12.84
2018-04-06T08:27:25.402Z,13.28
2018-04-06T08:28:30.496Z,13.27
2018-04-06T08:29:35.566Z,13.35
2018-04-06T08:30:41.423Z,14.15
2018-04-06T08:31:46.550Z,14.45
2018-04-06T08:32:51.768Z,15.28
2018-04-06T08:33:56.866Z,15.34
2018-04-06T08:35:01.938Z,14.96
2018-04-06T08:36:07.019Z,14.60
2018-04-06T08:37:12.065Z,14.96
2018-04-06T08:38:17.761Z,15.48
2018-04-06T08:39:23.923Z,15.53
2018-04-06T08:40:29.106Z,15.69
2018-04-06T08:41:34.076Z,15.52
2018-04-06T08:42:39.318Z,15.02
2018-04-06T08:43:44.782Z,14.68
2018-04-06T08:44:49.704Z,14.73
2018-04-06T08:45:55.287Z,14.50
2018-04-06T08:47:00.603Z,13.26
2018-04-06T08:48:05.524Z,13.19
2018-04-06T08:49:11.732Z,13.66
2018-04-06T08:50:17.593Z,14.01
2018-04-06T08:51:22.753Z,13.84
2018-04-06T08:52:27.703Z,14.31
2018-04-06T08:53:33.651Z,13.15
2018-04-06T08:54:38.867Z,12.52
2018-04-06T08:55:44.087Z,12.43
2018-04-06T08:56:49.114Z,13.15
2018-04-06T08:57:54.216Z,13.86
2018-04-06T08:58:59.253Z,14.17
2018-04-06T09:00:07.149Z,14.43
2018-04-06T09:01:12.612Z,14.40
2018-04-06T09:02:17.740Z,14.57
2018-04-06T09:03:22.701Z,14.67
2018-04-06T09:04:27.973Z,14.63
2018-04-06T09:05:32.922Z,14.37
2018-04-06T09:06:38.259Z,14.70
2018-04-06T09:07:43.477Z,15.11
2018-04-06T09:08:48.604Z,15.28
2018-04-06T09:09:53.678Z,15.67
2018-04-06T09:10:59.242Z,15.59
2018-04-06T09:12:04.484Z,15.35
2018-04-06T09:13:10.588Z,15.35
2018-04-06T09:14:15.721Z,15.21
2018-04-06T09:15:21.036Z,14.84
2018-04-06T09:16:26.226Z,14.76
2018-04-06T09:17:31.701Z,14.86
2018-04-06T09:18:36.600Z,15.41
2018-04-06T09:19:41.879Z,16.05
2018-04-06T09:20:46.906Z,15.65
2018-04-06T09:21:52.087Z,15.15
2018-04-06T09:22:57.902Z,15.34
2018-04-06T09:24:02.912Z,15.57
2018-04-06T09:25:09.660Z,15.21
2018-04-06T09:26:14.658Z,14.95
2018-04-06T09:27:20.564Z,14.40
2018-04-06T09:28:25.751Z,14.71
2018-04-06T09:29:31.919Z,15.47
2018-04-06T09:30:37.093Z,15.67
2018-04-06T09:31:42.343Z,15.84
2018-04-06T09:32:47.434Z,15.58
2018-04-06T09:33:52.587Z,15.61
2018-04-06T09:34:58.054Z,15.41
2018-04-06T09:36:03.455Z,15.33
2018-04-06T09:37:08.432Z,15.26
2018-04-06T09:38:13.522Z,15.06
2018-04-06T09:39:19.196Z,15.13
2018-04-06T09:40:24.089Z,15.26
2018-04-06T09:41:29.524Z,14.55
2018-04-06T09:42:34.971Z,13.95
2018-04-06T09:43:40.321Z,14.25
2018-04-06T09:44:45.449Z,14.41
2018-04-06T09:45:50.992Z,14.17
2018-04-06T09:46:56.475Z,13.98
2018-04-06T09:48:01.818Z,13.99
2018-04-06T09:49:06.881Z,14.09
2018-04-06T09:50:12.788Z,14.05
2018-04-06T09:51:18.460Z,14.23
2018-04-06T09:52:23.470Z,14.33
2018-04-06T09:53:28.670Z,14.39
2018-04-06T09:54:34.264Z,14.53
2018-04-06T09:55:39.566Z,14.80
2018-04-06T09:56:45.328Z,14.89
2018-04-06T09:57:50.471Z,15.27
2018-04-06T09:58:55.678Z,15.63
2018-04-06T10:00:00.792Z,15.72
2018-04-06T10:01:07.785Z,15.91
2018-04-06T10:02:14.196Z,15.89
2018-04-06T10:03:20.403Z,15.95
2018-04-06T10:04:25.751Z,16.00
2018-04-06T10:05:30.588Z,15.55
2018-04-06T10:06:35.830Z,15.37
2018-04-06T10:07:41.206Z,15.04
2018-04-06T10:08:46.221Z,14.83
2018-04-06T10:09:51.258Z,14.62
2018-04-06T10:10:56.328Z,14.59
2018-04-06T10:12:01.506Z,14.67
2018-04-06T10:13:06.503Z,14.64
2018-04-06T10:14:13.627Z,14.78
2018-04-06T10:15:19.206Z,14.95
2018-04-06T10:16:24.369Z,15.04
2018-04-06T10:17:29.947Z,15.02
2018-04-06T10:18:35.038Z,15.03
2018-04-06T10:19:40.044Z,14.84
2018-04-06T10:20:45.253Z,14.79
2018-04-06T10:21:50.270Z,14.71
2018-04-06T10:22:55.338Z,14.63
2018-04-06T10:24:00.398Z,14.77
2018-04-06T10:25:06.450Z,15.02
2018-04-06T10:26:11.558Z,15.14
2018-04-06T10:27:17.164Z,15.29
2018-04-06T10:28:22.333Z,15.57
2018-04-06T10:29:28.050Z,15.98
2018-04-06T10:30:34.351Z,16.24
2018-04-06T10:31:39.293Z,16.26
2018-04-06T10:32:44.386Z,16.11
2018-04-06T10:33:49.591Z,15.99
2018-04-06T10:34:54.666Z,15.74
2018-04-06T10:35:59.565Z,15.57
2018-04-06T10:37:05.033Z,15.53
2018-04-06T10:38:10.337Z,15.46
2018-04-06T10:39:15.726Z,15.18
2018-04-06T10:40:20.729Z,15.28
2018-04-06T10:41:25.894Z,15.24
2018-04-06T10:42:30.850Z,15.26
2018-04-06T10:43:35.939Z,15.44
2018-04-06T10:44:40.722Z,15.29
2018-04-06T10:45:46.457Z,15.11
2018-04-06T10:46:51.776Z,15.19
2018-04-06T10:47:56.851Z,15.23
2018-04-06T10:49:01.920Z,15.66
2018-04-06T10:50:08.025Z,15.49
2018-04-06T10:51:13.329Z,15.56
2018-04-06T10:52:18.905Z,15.88
2018-04-06T10:53:24.085Z,15.73
2018-04-06T10:54:29.790Z,16.07
2018-04-06T10:55:35.769Z,15.91
2018-04-06T10:56:40.674Z,15.91
2018-04-06T10:57:45.656Z,16.03
2018-04-06T10:58:50.463Z,15.92
2018-04-06T10:59:55.359Z,15.56
2018-04-06T11:01:00.497Z,15.24
2018-04-06T11:02:05.945Z,15.13
2018-04-06T11:03:11.163Z,15.11
2018-04-06T11:04:16.353Z,14.80
2018-04-06T11:05:22.082Z,15.01
2018-04-06T11:06:27.227Z,14.98
2018-04-06T11:07:32.720Z,14.74
2018-04-06T11:08:37.725Z,14.55
2018-04-06T11:10:57.893Z,15.19
2018-04-06T11:12:03.029Z,15.20
2018-04-06T11:13:08.179Z,15.45
2018-04-06T11:14:13.169Z,15.96
2018-04-06T11:15:19.163Z,16.72
2018-04-06T11:16:24.623Z,16.58
2018-04-06T11:17:29.839Z,16.17
2018-04-06T11:18:34.666Z,15.65
2018-04-06T11:19:39.531Z,15.69
2018-04-06T11:20:44.909Z,15.51
2018-04-06T11:21:50.072Z,15.68
2018-04-06T11:22:55.132Z,16.20
2018-04-06T11:24:00.144Z,15.70
2018-04-06T11:25:05.355Z,15.09
2018-04-06T11:26:10.537Z,14.95
2018-04-06T11:27:15.530Z,15.15
2018-04-06T11:28:20.704Z,15.66
2018-04-06T11:29:25.798Z,15.69
2018-04-06T11:30:31.820Z,15.75
2018-04-06T11:31:37.151Z,15.69
2018-04-06T11:32:42.632Z,15.95
2018-04-06T11:33:47.790Z,16.27
2018-04-06T11:34:53.027Z,17.07
2018-04-06T11:35:58.164Z,16.78
2018-04-06T11:37:03.241Z,16.29
2018-04-06T11:38:08.260Z,16.10
2018-04-06T11:39:13.800Z,15.45
2018-04-06T11:40:19.400Z,15.40
2018-04-06T11:41:24.375Z,15.98
2018-04-06T11:42:29.419Z,16.66
2018-04-06T11:44:47.105Z,16.61
2018-04-06T11:45:52.601Z,16.73
2018-04-06T11:46:57.557Z,16.56
2018-04-06T11:48:02.787Z,16.75
2018-04-06T11:49:07.829Z,17.01
2018-04-06T11:50:12.982Z,17.01
2018-04-06T11:51:18.045Z,16.55
2018-04-06T11:52:23.776Z,16.34
2018-04-06T11:53:29.229Z,16.50
2018-04-06T11:54:34.157Z,17.35
2018-04-06T11:55:39.393Z,16.70
2018-04-06T11:56:44.605Z,16.36
2018-04-06T11:57:49.503Z,16.44
2018-04-06T11:58:55.020Z,16.54
2018-04-06T12:00:00.103Z,16.95
2018-04-06T12:01:05.675Z,16.85
2018-04-06T12:02:10.898Z,16.59
2018-04-06T12:03:16.046Z,16.50
2018-04-06T12:04:21.213Z,16.19
2018-04-06T12:05:26.242Z,16.24
2018-04-06T12:06:31.253Z,16.26
2018-04-06T12:07:36.287Z,16.18
2018-04-06T12:08:41.513Z,15.50
2018-04-06T12:09:46.444Z,16.12
2018-04-06T12:10:51.318Z,16.59
2018-04-06T12:11:56.503Z,16.83
2018-04-06T12:13:01.500Z,16.77
2018-04-06T12:14:06.524Z,16.76
2018-04-06T12:15:13.703Z,16.52
2018-04-06T12:16:19.926Z,16.69
2018-04-06T12:17:25.561Z,17.34
2018-04-06T12:18:30.557Z,17.38
2018-04-06T12:19:35.617Z,17.16
2018-04-06T12:20:41.883Z,17.32
2018-04-06T12:21:47.024Z,17.37
2018-04-06T12:22:51.959Z,16.89
2018-04-06T12:23:57.336Z,16.56
2018-04-06T12:25:02.695Z,16.64
2018-04-06T12:26:08.152Z,16.78
2018-04-06T12:27:13.288Z,16.75
2018-04-06T12:28:18.466Z,17.31
2018-04-06T12:29:23.979Z,17.24
2018-04-06T12:30:29.488Z,16.49
2018-04-06T12:31:34.901Z,16.32
2018-04-06T12:32:40.628Z,16.03
2018-04-06T12:33:45.507Z,16.16
2018-04-06T12:34:50.622Z,16.97
2018-04-06T12:35:56.312Z,17.53
2018-04-06T12:37:01.322Z,16.67
2018-04-06T12:38:06.404Z,15.95
2018-04-06T12:39:11.788Z,15.38
2018-04-06T12:40:16.806Z,15.66
2018-04-06T12:41:22.401Z,16.20
2018-04-06T12:42:27.531Z,16.78
2018-04-06T12:43:32.513Z,16.91
2018-04-06T12:44:38.076Z,16.90
2018-04-06T12:45:43.584Z,16.46
2018-04-06T12:46:49.573Z,16.92
2018-04-06T12:47:54.773Z,17.66
2018-04-06T12:48:59.782Z,17.98
2018-04-06T12:50:04.829Z,17.43
2018-04-06T12:51:10.054Z,16.98
2018-04-06T12:52:15.086Z,16.49
2018-04-06T12:53:20.060Z,16.27
2018-04-06T12:54:25.576Z,15.95
2018-04-06T12:55:30.659Z,15.62
2018-04-06T12:56:35.727Z,15.63
2018-04-06T12:57:41.568Z,15.67
2018-04-06T12:58:46.819Z,15.87
2018-04-06T12:59:52.066Z,15.70
2018-04-06T13:00:57.571Z,15.73
2018-04-06T13:02:02.603Z,16.03
2018-04-06T13:03:07.741Z,16.38
2018-04-06T13:04:12.758Z,16.32
2018-04-06T13:05:17.918Z,16.62
2018-04-06T13:06:23.199Z,17.26
2018-04-06T13:07:28.683Z,17.31
2018-04-06T13:08:33.761Z,17.15
2018-04-06T13:09:38.935Z,16.32
2018-04-06T13:10:44.804Z,15.79
2018-04-06T13:11:50.086Z,15.75
2018-04-06T13:12:55.138Z,16.63
2018-04-06T13:14:00.626Z,16.81
2018-04-06T13:15:08.694Z,17.22
2018-04-06T13:16:14.498Z,17.58
2018-04-06T13:17:19.637Z,17.25
2018-04-06T13:18:24.703Z,16.46
2018-04-06T13:19:29.742Z,15.88
2018-04-06T13:20:35.360Z,15.94
2018-04-06T13:21:40.361Z,15.87
2018-04-06T13:22:45.412Z,15.98
2018-04-06T13:23:50.971Z,15.82
2018-04-06T13:24:55.927Z,15.80
2018-04-06T13:26:01.439Z,16.39
2018-04-06T13:27:06.636Z,16.53
2018-04-06T13:28:11.700Z,16.50
2018-04-06T13:29:16.915Z,16.29
2018-04-06T13:30:22.442Z,16.97
2018-04-06T13:31:27.543Z,18.53
2018-04-06T13:32:32.897Z,18.16
2018-04-06T13:33:37.860Z,18.36
2018-04-06T13:34:43.270Z,17.17
2018-04-06T13:35:48.705Z,16.96
2018-04-06T13:36:53.640Z,17.10
2018-04-06T13:37:58.663Z,17.08
2018-04-06T13:39:05.044Z,16.13
2018-04-06T13:40:09.951Z,15.79
2018-04-06T13:41:14.857Z,16.16
2018-04-06T13:42:19.804Z,16.61
2018-04-06T13:43:24.976Z,16.97
2018-04-06T13:44:29.941Z,16.85
2018-04-06T13:45:35.409Z,16.61
2018-04-06T13:46:40.396Z,16.42
2018-04-06T13:47:46.174Z,16.16
2018-04-06T13:48:51.224Z,16.39
2018-04-06T13:49:56.312Z,16.55
2018-04-06T13:51:01.538Z,16.38
2018-04-06T13:52:06.572Z,16.46
2018-04-06T13:53:11.548Z,16.72
2018-04-06T13:54:16.481Z,17.19
2018-04-06T13:55:21.565Z,17.48
2018-04-06T13:56:26.876Z,17.59
2018-04-06T13:57:31.983Z,17.12
2018-04-06T13:58:36.921Z,17.40
2018-04-06T13:59:42.365Z,17.56
2018-04-06T14:00:47.609Z,17.53
2018-04-06T14:01:52.504Z,17.15
2018-04-06T14:02:57.314Z,17.37
2018-04-06T14:04:02.670Z,17.59
2018-04-06T14:05:07.753Z,17.70
2018-04-06T14:06:12.871Z,17.82
2018-04-06T14:07:17.733Z,17.47
2018-04-06T14:08:22.737Z,17.44
2018-04-06T14:09:28.527Z,16.91
2018-04-06T14:10:34.473Z,16.61